sensor_id;sensor_type;location;lat;lon;timestamp;temperature;humidity
19552;DHT22;9921;47.186;9.778;2022-09-09T00:02:13;18.00;99.90
19552;DHT22;9921;47.186;9.778;2022-09-09T00:04:48;18.20;99.90
19552;DHT22;9921;47.186;9.778;2022-09-09T00:07:21;18.30;99.90
19552;DHT22;9921;47.186;9.778;2022-09-09T00:09:57;18.50;99.90
19552;DHT22;9921;47.186;9.778;2022-09-09T00:12:34;18.60;99.90
19552;DHT22;9921;47.186;9.778;2022-09-09T00:15:07;18.70;99.90
19552;DHT22;9921;47.186;9.778;2022-09-09T00:17:41;18.60;99.90
19552;DHT22;9921;47.186;9.778;2022-09-09T00:20:14;18.50;99.90
19552;DHT22;9921;47.186;9.778;2022-09-09T00:22:48;18.60;99.90
19552;DHT22;9921;47.186;9.778;2022-09-09T00:25:23;18.60;99.90
19552;DHT22;9921;47.186;9.778;2022-09-09T00:27:54;18.60;99.90
19552;DHT22;9921;47.186;9.778;2022-09-09T00:30:23;18.70;99.90
19552;DHT22;9921;47.186;9.778;2022-09-09T00:32:53;18.70;99.90
19552;DHT22;9921;47.186;9.778;2022-09-09T00:35:27;18.70;99.90
19552;DHT22;9921;47.186;9.778;2022-09-09T00:37:58;18.70;99.90
19552;DHT22;9921;47.186;9.778;2022-09-09T00:40:31;18.70;99.90
19552;DHT22;9921;47.186;9.778;2022-09-09T00:43:14;18.50;99.90
19552;DHT22;9921;47.186;9.778;2022-09-09T00:45:56;18.20;99.90
19552;DHT22;9921;47.186;9.778;2022-09-09T00:48:34;18.00;99.90
19552;DHT22;9921;47.186;9.778;2022-09-09T00:51:09;18.20;99.90
19552;DHT22;9921;47.186;9.778;2022-09-09T00:54:03;18.10;99.90
19552;DHT22;9921;47.186;9.778;2022-09-09T00:56:37;18.00;99.90
19552;DHT22;9921;47.186;9.778;2022-09-09T00:59:15;18.00;99.90
19552;DHT22;9921;47.186;9.778;2022-09-09T01:01:46;18.00;99.90
19552;DHT22;9921;47.186;9.778;2022-09-09T01:04:16;18.00;99.90
19552;DHT22;9921;47.186;9.778;2022-09-09T01:06:50;18.10;99.90
19552;DHT22;9921;47.186;9.778;2022-09-09T01:09:24;18.20;99.90
19552;DHT22;9921;47.186;9.778;2022-09-09T01:11:59;18.30;99.90
19552;DHT22;9921;47.186;9.778;2022-09-09T01:14:38;18.40;99.90
19552;DHT22;9921;47.186;9.778;2022-09-09T01:17:12;18.50;99.90
19552;DHT22;9921;47.186;9.778;2022-09-09T01:20:00;18.50;99.90
19552;DHT22;9921;47.186;9.778;2022-09-09T01:22:35;18.50;99.90
19552;DHT22;9921;47.186;9.778;2022-09-09T01:25:25;18.30;99.90
19552;DHT22;9921;47.186;9.778;2022-09-09T01:27:57;18.20;99.90
19552;DHT22;9921;47.186;9.778;2022-09-09T01:30:25;18.10;99.90
19552;DHT22;9921;47.186;9.778;2022-09-09T01:32:54;18.00;99.90
19552;DHT22;9921;47.186;9.778;2022-09-09T01:35:31;18.00;99.90
19552;DHT22;9921;47.186;9.778;2022-09-09T01:37:59;18.00;99.90
19552;DHT22;9921;47.186;9.778;2022-09-09T01:40:26;18.10;99.90
19552;DHT22;9921;47.186;9.778;2022-09-09T01:42:55;18.10;99.90
19552;DHT22;9921;47.186;9.778;2022-09-09T01:45:22;18.20;99.90
19552;DHT22;9921;47.186;9.778;2022-09-09T01:47:51;18.30;99.90
19552;DHT22;9921;47.186;9.778;2022-09-09T01:50:18;18.50;99.90
19552;DHT22;9921;47.186;9.778;2022-09-09T01:52:48;18.40;99.90
19552;DHT22;9921;47.186;9.778;2022-09-09T01:55:16;18.50;99.90
19552;DHT22;9921;47.186;9.778;2022-09-09T01:57:53;18.60;99.90
19552;DHT22;9921;47.186;9.778;2022-09-09T02:00:24;18.50;99.90
19552;DHT22;9921;47.186;9.778;2022-09-09T02:03:00;18.50;99.90
19552;DHT22;9921;47.186;9.778;2022-09-09T02:05:34;18.40;99.90
19552;DHT22;9921;47.186;9.778;2022-09-09T02:08:06;18.20;99.90
19552;DHT22;9921;47.186;9.778;2022-09-09T02:10:39;17.90;99.90
19552;DHT22;9921;47.186;9.778;2022-09-09T02:13:10;17.80;99.90
19552;DHT22;9921;47.186;9.778;2022-09-09T02:15:45;17.70;99.90
19552;DHT22;9921;47.186;9.778;2022-09-09T02:18:15;17.70;99.90
19552;DHT22;9921;47.186;9.778;2022-09-09T02:20:45;17.90;99.90
19552;DHT22;9921;47.186;9.778;2022-09-09T02:23:12;18.00;99.90
19552;DHT22;9921;47.186;9.778;2022-09-09T02:25:41;18.00;99.90
19552;DHT22;9921;47.186;9.778;2022-09-09T02:28:10;17.80;99.90
19552;DHT22;9921;47.186;9.778;2022-09-09T02:30:41;17.80;99.90
19552;DHT22;9921;47.186;9.778;2022-09-09T02:33:09;17.80;99.90
19552;DHT22;9921;47.186;9.778;2022-09-09T02:35:38;18.00;99.90
19552;DHT22;9921;47.186;9.778;2022-09-09T02:38:09;18.10;99.90
19552;DHT22;9921;47.186;9.778;2022-09-09T02:40:37;18.20;99.90
19552;DHT22;9921;47.186;9.778;2022-09-09T02:43:04;18.20;99.90
19552;DHT22;9921;47.186;9.778;2022-09-09T02:45:36;18.30;99.90
19552;DHT22;9921;47.186;9.778;2022-09-09T02:48:14;18.20;99.90
19552;DHT22;9921;47.186;9.778;2022-09-09T02:50:51;18.30;99.90
19552;DHT22;9921;47.186;9.778;2022-09-09T02:53:24;18.30;99.90
19552;DHT22;9921;47.186;9.778;2022-09-09T02:55:58;18.20;99.90
19552;DHT22;9921;47.186;9.778;2022-09-09T02:58:26;18.20;99.90
19552;DHT22;9921;47.186;9.778;2022-09-09T03:00:53;18.20;99.90
19552;DHT22;9921;47.186;9.778;2022-09-09T03:03:24;18.20;99.90
19552;DHT22;9921;47.186;9.778;2022-09-09T03:05:51;18.20;99.90
19552;DHT22;9921;47.186;9.778;2022-09-09T03:08:18;18.10;99.90
19552;DHT22;9921;47.186;9.778;2022-09-09T03:10:45;18.00;99.90
19552;DHT22;9921;47.186;9.778;2022-09-09T03:13:12;18.10;99.90
19552;DHT22;9921;47.186;9.778;2022-09-09T03:15:41;17.70;99.90
19552;DHT22;9921;47.186;9.778;2022-09-09T03:18:08;17.60;99.90
19552;DHT22;9921;47.186;9.778;2022-09-09T03:20:36;17.70;99.90
19552;DHT22;9921;47.186;9.778;2022-09-09T03:23:03;17.70;99.90
19552;DHT22;9921;47.186;9.778;2022-09-09T03:25:30;17.60;99.90
19552;DHT22;9921;47.186;9.778;2022-09-09T03:27:57;17.60;99.90
19552;DHT22;9921;47.186;9.778;2022-09-09T03:30:26;17.60;99.90
19552;DHT22;9921;47.186;9.778;2022-09-09T03:32:53;17.70;99.90
19552;DHT22;9921;47.186;9.778;2022-09-09T03:35:20;17.60;99.90
19552;DHT22;9921;47.186;9.778;2022-09-09T03:37:48;17.60;99.90
19552;DHT22;9921;47.186;9.778;2022-09-09T03:40:15;17.50;99.90
19552;DHT22;9921;47.186;9.778;2022-09-09T03:42:44;17.40;99.90
19552;DHT22;9921;47.186;9.778;2022-09-09T03:45:11;17.40;99.90
19552;DHT22;9921;47.186;9.778;2022-09-09T03:47:38;17.40;99.90
19552;DHT22;9921;47.186;9.778;2022-09-09T03:50:06;17.50;99.90
19552;DHT22;9921;47.186;9.778;2022-09-09T03:52:35;17.50;99.90
19552;DHT22;9921;47.186;9.778;2022-09-09T03:55:04;17.50;99.90
19552;DHT22;9921;47.186;9.778;2022-09-09T03:57:32;17.50;99.90
19552;DHT22;9921;47.186;9.778;2022-09-09T04:00:01;17.30;99.90
19552;DHT22;9921;47.186;9.778;2022-09-09T04:02:28;17.30;99.90
19552;DHT22;9921;47.186;9.778;2022-09-09T04:04:55;17.50;99.90
19552;DHT22;9921;47.186;9.778;2022-09-09T04:07:21;17.50;99.90
19552;DHT22;9921;47.186;9.778;2022-09-09T04:09:48;17.50;99.90
19552;DHT22;9921;47.186;9.778;2022-09-09T04:12:17;17.60;99.90
19552;DHT22;9921;47.186;9.778;2022-09-09T04:14:43;17.60;99.90
19552;DHT22;9921;47.186;9.778;2022-09-09T04:17:10;17.60;99.90
19552;DHT22;9921;47.186;9.778;2022-09-09T04:19:37;17.50;99.90
19552;DHT22;9921;47.186;9.778;2022-09-09T04:22:04;17.30;99.90
19552;DHT22;9921;47.186;9.778;2022-09-09T04:24:31;17.20;99.90
19552;DHT22;9921;47.186;9.778;2022-09-09T04:26:58;17.30;99.90
19552;DHT22;9921;47.186;9.778;2022-09-09T04:29:26;17.30;99.90
19552;DHT22;9921;47.186;9.778;2022-09-09T04:31:53;17.30;99.90
19552;DHT22;9921;47.186;9.778;2022-09-09T04:34:19;17.30;99.90
19552;DHT22;9921;47.186;9.778;2022-09-09T04:36:46;17.50;99.90
19552;DHT22;9921;47.186;9.778;2022-09-09T04:39:13;17.50;99.90
19552;DHT22;9921;47.186;9.778;2022-09-09T04:41:40;17.70;99.90
19552;DHT22;9921;47.186;9.778;2022-09-09T04:44:07;17.60;99.90
19552;DHT22;9921;47.186;9.778;2022-09-09T04:46:36;17.60;99.90
19552;DHT22;9921;47.186;9.778;2022-09-09T04:49:03;17.50;99.90
19552;DHT22;9921;47.186;9.778;2022-09-09T04:51:30;17.50;99.90
19552;DHT22;9921;47.186;9.778;2022-09-09T04:53:57;17.60;99.90
19552;DHT22;9921;47.186;9.778;2022-09-09T04:56:24;17.60;99.90
19552;DHT22;9921;47.186;9.778;2022-09-09T04:58:53;17.60;99.90
19552;DHT22;9921;47.186;9.778;2022-09-09T05:01:21;17.60;99.90
19552;DHT22;9921;47.186;9.778;2022-09-09T05:03:50;17.60;99.90
19552;DHT22;9921;47.186;9.778;2022-09-09T05:06:19;17.40;99.90
19552;DHT22;9921;47.186;9.778;2022-09-09T05:08:46;17.30;99.90
19552;DHT22;9921;47.186;9.778;2022-09-09T05:11:16;17.50;99.90
19552;DHT22;9921;47.186;9.778;2022-09-09T05:13:43;17.50;99.90
19552;DHT22;9921;47.186;9.778;2022-09-09T05:16:10;17.40;99.90
19552;DHT22;9921;47.186;9.778;2022-09-09T05:18:37;17.40;99.90
19552;DHT22;9921;47.186;9.778;2022-09-09T05:21:06;17.20;99.90
19552;DHT22;9921;47.186;9.778;2022-09-09T05:23:33;17.30;99.90
19552;DHT22;9921;47.186;9.778;2022-09-09T05:26:01;17.40;99.90
19552;DHT22;9921;47.186;9.778;2022-09-09T05:28:28;17.50;99.90
19552;DHT22;9921;47.186;9.778;2022-09-09T05:30:57;17.60;99.90
19552;DHT22;9921;47.186;9.778;2022-09-09T05:33:24;17.60;99.90
19552;DHT22;9921;47.186;9.778;2022-09-09T05:35:58;17.70;99.90
19552;DHT22;9921;47.186;9.778;2022-09-09T05:38:27;17.80;99.90
19552;DHT22;9921;47.186;9.778;2022-09-09T05:40:54;17.80;99.90
19552;DHT22;9921;47.186;9.778;2022-09-09T05:43:22;17.80;99.90
19552;DHT22;9921;47.186;9.778;2022-09-09T05:45:59;17.90;99.90
19552;DHT22;9921;47.186;9.778;2022-09-09T05:48:28;17.90;99.90
19552;DHT22;9921;47.186;9.778;2022-09-09T05:50:55;17.90;99.90
19552;DHT22;9921;47.186;9.778;2022-09-09T05:53:22;17.90;99.90
19552;DHT22;9921;47.186;9.778;2022-09-09T05:55:50;18.00;99.90
19552;DHT22;9921;47.186;9.778;2022-09-09T05:58:24;18.10;99.90
19552;DHT22;9921;47.186;9.778;2022-09-09T06:00:51;18.20;99.90
19552;DHT22;9921;47.186;9.778;2022-09-09T06:03:17;18.30;99.90
19552;DHT22;9921;47.186;9.778;2022-09-09T06:05:44;18.30;99.90
19552;DHT22;9921;47.186;9.778;2022-09-09T06:08:11;18.50;99.90
19552;DHT22;9921;47.186;9.778;2022-09-09T06:10:38;18.60;99.90
19552;DHT22;9921;47.186;9.778;2022-09-09T06:13:06;18.60;99.90
19552;DHT22;9921;47.186;9.778;2022-09-09T06:15:35;18.70;99.90
19552;DHT22;9921;47.186;9.778;2022-09-09T06:18:02;18.80;99.90
19552;DHT22;9921;47.186;9.778;2022-09-09T06:20:29;18.90;99.90
19552;DHT22;9921;47.186;9.778;2022-09-09T06:22:57;19.00;99.90
19552;DHT22;9921;47.186;9.778;2022-09-09T06:25:24;19.00;99.90
19552;DHT22;9921;47.186;9.778;2022-09-09T06:27:51;19.00;99.90
19552;DHT22;9921;47.186;9.778;2022-09-09T06:30:19;19.00;99.90
19552;DHT22;9921;47.186;9.778;2022-09-09T06:32:46;19.00;99.90
19552;DHT22;9921;47.186;9.778;2022-09-09T06:35:13;19.10;99.90
19552;DHT22;9921;47.186;9.778;2022-09-09T06:37:40;18.90;99.90
19552;DHT22;9921;47.186;9.778;2022-09-09T06:40:11;18.90;99.90
19552;DHT22;9921;47.186;9.778;2022-09-09T06:42:37;18.90;99.90
19552;DHT22;9921;47.186;9.778;2022-09-09T06:45:05;18.90;99.90
19552;DHT22;9921;47.186;9.778;2022-09-09T06:47:34;18.90;99.90
19552;DHT22;9921;47.186;9.778;2022-09-09T06:50:00;18.90;99.90
19552;DHT22;9921;47.186;9.778;2022-09-09T06:52:27;18.90;99.90
19552;DHT22;9921;47.186;9.778;2022-09-09T06:54:54;19.00;99.90
19552;DHT22;9921;47.186;9.778;2022-09-09T06:57:21;19.10;99.90
19552;DHT22;9921;47.186;9.778;2022-09-09T06:59:48;19.10;99.90
19552;DHT22;9921;47.186;9.778;2022-09-09T07:02:15;19.00;99.90
19552;DHT22;9921;47.186;9.778;2022-09-09T07:04:43;19.00;99.90
19552;DHT22;9921;47.186;9.778;2022-09-09T07:07:10;19.00;99.90
19552;DHT22;9921;47.186;9.778;2022-09-09T07:09:39;19.00;99.90
19552;DHT22;9921;47.186;9.778;2022-09-09T07:12:06;19.10;99.90
19552;DHT22;9921;47.186;9.778;2022-09-09T07:14:33;19.10;99.90
19552;DHT22;9921;47.186;9.778;2022-09-09T07:17:02;19.10;99.90
19552;DHT22;9921;47.186;9.778;2022-09-09T07:19:29;18.90;99.90
19552;DHT22;9921;47.186;9.778;2022-09-09T07:21:57;18.70;99.90
19552;DHT22;9921;47.186;9.778;2022-09-09T07:24:24;18.90;99.90
19552;DHT22;9921;47.186;9.778;2022-09-09T07:26:56;19.10;99.90
19552;DHT22;9921;47.186;9.778;2022-09-09T07:29:22;19.10;99.90
19552;DHT22;9921;47.186;9.778;2022-09-09T07:31:49;19.20;99.90
19552;DHT22;9921;47.186;9.778;2022-09-09T07:34:16;19.10;99.90
19552;DHT22;9921;47.186;9.778;2022-09-09T07:36:43;19.20;99.90
19552;DHT22;9921;47.186;9.778;2022-09-09T07:39:14;19.20;99.90
19552;DHT22;9921;47.186;9.778;2022-09-09T07:41:44;19.30;99.90
19552;DHT22;9921;47.186;9.778;2022-09-09T07:44:13;19.50;99.90
19552;DHT22;9921;47.186;9.778;2022-09-09T07:46:40;19.60;99.90
19552;DHT22;9921;47.186;9.778;2022-09-09T07:49:08;19.60;99.90
19552;DHT22;9921;47.186;9.778;2022-09-09T07:51:36;19.80;99.90
19552;DHT22;9921;47.186;9.778;2022-09-09T07:54:06;19.90;99.90
19552;DHT22;9921;47.186;9.778;2022-09-09T07:56:34;20.10;99.90
19552;DHT22;9921;47.186;9.778;2022-09-09T07:59:03;20.30;99.90
19552;DHT22;9921;47.186;9.778;2022-09-09T08:01:33;20.40;99.90
19552;DHT22;9921;47.186;9.778;2022-09-09T08:04:04;20.60;99.90
19552;DHT22;9921;47.186;9.778;2022-09-09T08:06:34;20.70;99.90
19552;DHT22;9921;47.186;9.778;2022-09-09T08:09:01;20.80;99.90
19552;DHT22;9921;47.186;9.778;2022-09-09T08:11:29;20.90;99.90
19552;DHT22;9921;47.186;9.778;2022-09-09T08:13:57;21.10;99.90
19552;DHT22;9921;47.186;9.778;2022-09-09T08:16:25;21.20;99.90
19552;DHT22;9921;47.186;9.778;2022-09-09T08:18:53;21.40;99.90
19552;DHT22;9921;47.186;9.778;2022-09-09T08:21:22;21.60;99.90
19552;DHT22;9921;47.186;9.778;2022-09-09T08:23:50;21.80;99.90
19552;DHT22;9921;47.186;9.778;2022-09-09T08:26:20;22.10;99.90
19552;DHT22;9921;47.186;9.778;2022-09-09T08:28:49;22.50;99.90
19552;DHT22;9921;47.186;9.778;2022-09-09T08:31:20;22.80;99.90
19552;DHT22;9921;47.186;9.778;2022-09-09T08:33:48;23.10;99.90
19552;DHT22;9921;47.186;9.778;2022-09-09T08:36:18;23.10;99.90
19552;DHT22;9921;47.186;9.778;2022-09-09T08:38:47;23.10;99.90
19552;DHT22;9921;47.186;9.778;2022-09-09T08:44:13;23.60;99.90
19552;DHT22;9921;47.186;9.778;2022-09-09T08:46:48;23.40;99.90
19552;DHT22;9921;47.186;9.778;2022-09-09T08:49:39;22.80;99.90
19552;DHT22;9921;47.186;9.778;2022-09-09T08:52:16;22.10;99.90
19552;DHT22;9921;47.186;9.778;2022-09-09T08:54:44;21.40;99.90
19552;DHT22;9921;47.186;9.778;2022-09-09T08:57:14;20.80;99.90
19552;DHT22;9921;47.186;9.778;2022-09-09T08:59:44;20.30;99.90
19552;DHT22;9921;47.186;9.778;2022-09-09T09:02:16;20.00;99.90
19552;DHT22;9921;47.186;9.778;2022-09-09T09:04:52;19.80;99.90
19552;DHT22;9921;47.186;9.778;2022-09-09T09:07:28;19.60;99.90
19552;DHT22;9921;47.186;9.778;2022-09-09T09:10:02;19.20;99.90
19552;DHT22;9921;47.186;9.778;2022-09-09T09:12:37;18.90;99.90
19552;DHT22;9921;47.186;9.778;2022-09-09T09:15:14;18.60;99.90
19552;DHT22;9921;47.186;9.778;2022-09-09T09:17:45;18.50;99.90
19552;DHT22;9921;47.186;9.778;2022-09-09T09:20:13;18.40;99.90
19552;DHT22;9921;47.186;9.778;2022-09-09T09:22:47;18.40;99.90
19552;DHT22;9921;47.186;9.778;2022-09-09T09:25:18;18.40;99.90
19552;DHT22;9921;47.186;9.778;2022-09-09T09:27:52;18.40;99.90
19552;DHT22;9921;47.186;9.778;2022-09-09T09:30:26;18.30;99.90
19552;DHT22;9921;47.186;9.778;2022-09-09T09:33:01;18.10;99.90
19552;DHT22;9921;47.186;9.778;2022-09-09T09:35:29;18.10;99.90
19552;DHT22;9921;47.186;9.778;2022-09-09T09:37:56;18.10;99.90
19552;DHT22;9921;47.186;9.778;2022-09-09T09:40:23;18.00;99.90
19552;DHT22;9921;47.186;9.778;2022-09-09T09:42:52;18.00;99.90
19552;DHT22;9921;47.186;9.778;2022-09-09T09:45:27;17.90;99.90
19552;DHT22;9921;47.186;9.778;2022-09-09T09:48:01;18.00;99.90
19552;DHT22;9921;47.186;9.778;2022-09-09T09:50:29;18.00;99.90
19552;DHT22;9921;47.186;9.778;2022-09-09T09:52:58;17.90;99.90
19552;DHT22;9921;47.186;9.778;2022-09-09T09:55:26;17.70;99.90
19552;DHT22;9921;47.186;9.778;2022-09-09T09:58:01;17.70;99.90
19552;DHT22;9921;47.186;9.778;2022-09-09T10:00:28;17.60;99.90
19552;DHT22;9921;47.186;9.778;2022-09-09T10:02:55;17.40;99.90
19552;DHT22;9921;47.186;9.778;2022-09-09T10:05:24;17.60;99.90
19552;DHT22;9921;47.186;9.778;2022-09-09T10:08:08;17.70;99.90
19552;DHT22;9921;47.186;9.778;2022-09-09T10:10:53;17.80;99.90
19552;DHT22;9921;47.186;9.778;2022-09-09T10:13:29;18.00;99.90
19552;DHT22;9921;47.186;9.778;2022-09-09T10:16:08;18.10;99.90
19552;DHT22;9921;47.186;9.778;2022-09-09T10:18:47;18.20;99.90
19552;DHT22;9921;47.186;9.778;2022-09-09T10:21:42;18.20;99.90
19552;DHT22;9921;47.186;9.778;2022-09-09T10:27:36;18.20;99.90
19552;DHT22;9921;47.186;9.778;2022-09-09T10:30:12;18.00;99.90
19552;DHT22;9921;47.186;9.778;2022-09-09T10:32:46;17.90;99.90
19552;DHT22;9921;47.186;9.778;2022-09-09T10:35:27;17.70;99.90
19552;DHT22;9921;47.186;9.778;2022-09-09T10:38:17;17.50;99.90
19552;DHT22;9921;47.186;9.778;2022-09-09T10:41:13;17.50;99.90
19552;DHT22;9921;47.186;9.778;2022-09-09T10:44:02;17.70;99.90
19552;DHT22;9921;47.186;9.778;2022-09-09T10:46:39;18.00;99.90
19552;DHT22;9921;47.186;9.778;2022-09-09T10:49:17;18.20;99.90
19552;DHT22;9921;47.186;9.778;2022-09-09T10:51:55;18.60;99.90
19552;DHT22;9921;47.186;9.778;2022-09-09T10:54:34;18.70;99.90
19552;DHT22;9921;47.186;9.778;2022-09-09T10:57:11;18.90;99.90
19552;DHT22;9921;47.186;9.778;2022-09-09T10:59:43;18.90;99.90
19552;DHT22;9921;47.186;9.778;2022-09-09T11:02:15;18.70;99.90
19552;DHT22;9921;47.186;9.778;2022-09-09T11:04:49;18.70;99.90
19552;DHT22;9921;47.186;9.778;2022-09-09T11:07:25;18.80;99.90
19552;DHT22;9921;47.186;9.778;2022-09-09T11:10:01;18.70;99.90
19552;DHT22;9921;47.186;9.778;2022-09-09T11:12:30;18.90;99.90
19552;DHT22;9921;47.186;9.778;2022-09-09T11:15:01;19.00;99.90
19552;DHT22;9921;47.186;9.778;2022-09-09T11:17:35;19.20;99.90
19552;DHT22;9921;47.186;9.778;2022-09-09T11:20:05;19.10;99.90
19552;DHT22;9921;47.186;9.778;2022-09-09T11:22:35;18.90;99.90
19552;DHT22;9921;47.186;9.778;2022-09-09T11:25:14;19.00;99.90
19552;DHT22;9921;47.186;9.778;2022-09-09T11:28:06;19.10;99.90
19552;DHT22;9921;47.186;9.778;2022-09-09T11:30:46;19.40;99.90
19552;DHT22;9921;47.186;9.778;2022-09-09T11:33:34;20.20;99.90
19552;DHT22;9921;47.186;9.778;2022-09-09T11:36:24;20.60;99.90
19552;DHT22;9921;47.186;9.778;2022-09-09T11:38:59;21.10;99.90
19552;DHT22;9921;47.186;9.778;2022-09-09T11:41:35;21.40;99.90
19552;DHT22;9921;47.186;9.778;2022-09-09T11:44:10;21.60;99.90
19552;DHT22;9921;47.186;9.778;2022-09-09T11:46:39;21.00;99.90
19552;DHT22;9921;47.186;9.778;2022-09-09T11:49:26;20.70;99.90
19552;DHT22;9921;47.186;9.778;2022-09-09T11:51:54;19.90;99.90
19552;DHT22;9921;47.186;9.778;2022-09-09T11:54:29;19.60;99.90
19552;DHT22;9921;47.186;9.778;2022-09-09T11:56:57;19.30;99.90
19552;DHT22;9921;47.186;9.778;2022-09-09T11:59:27;19.20;99.90
19552;DHT22;9921;47.186;9.778;2022-09-09T12:01:56;19.30;99.90
19552;DHT22;9921;47.186;9.778;2022-09-09T12:04:41;19.30;99.90
19552;DHT22;9921;47.186;9.778;2022-09-09T12:07:26;19.40;99.90
19552;DHT22;9921;47.186;9.778;2022-09-09T12:09:58;19.40;99.90
19552;DHT22;9921;47.186;9.778;2022-09-09T12:12:31;19.60;99.90
19552;DHT22;9921;47.186;9.778;2022-09-09T12:15:02;19.80;99.90
19552;DHT22;9921;47.186;9.778;2022-09-09T12:17:31;19.90;99.90
19552;DHT22;9921;47.186;9.778;2022-09-09T12:20:06;20.00;99.90
19552;DHT22;9921;47.186;9.778;2022-09-09T12:22:40;20.30;99.90
19552;DHT22;9921;47.186;9.778;2022-09-09T12:25:18;20.50;99.90
19552;DHT22;9921;47.186;9.778;2022-09-09T12:28:00;21.20;99.90
19552;DHT22;9921;47.186;9.778;2022-09-09T12:30:33;22.50;99.90
19552;DHT22;9921;47.186;9.778;2022-09-09T12:33:01;22.90;99.90
19552;DHT22;9921;47.186;9.778;2022-09-09T12:35:30;23.70;99.90
19552;DHT22;9921;47.186;9.778;2022-09-09T12:38:00;24.00;99.90
19552;DHT22;9921;47.186;9.778;2022-09-09T12:40:29;24.00;99.90
19552;DHT22;9921;47.186;9.778;2022-09-09T12:42:58;23.70;99.90
19552;DHT22;9921;47.186;9.778;2022-09-09T12:45:28;23.20;99.90
19552;DHT22;9921;47.186;9.778;2022-09-09T12:47:58;23.10;99.90
19552;DHT22;9921;47.186;9.778;2022-09-09T12:50:28;22.70;99.90
19552;DHT22;9921;47.186;9.778;2022-09-09T12:52:58;22.10;99.90
19552;DHT22;9921;47.186;9.778;2022-09-09T12:55:28;22.10;99.90
19552;DHT22;9921;47.186;9.778;2022-09-09T12:57:58;21.70;99.90
19552;DHT22;9921;47.186;9.778;2022-09-09T13:00:26;21.80;99.90
19552;DHT22;9921;47.186;9.778;2022-09-09T13:02:55;21.80;99.90
19552;DHT22;9921;47.186;9.778;2022-09-09T13:05:24;21.30;99.90
19552;DHT22;9921;47.186;9.778;2022-09-09T13:07:52;21.10;99.90
19552;DHT22;9921;47.186;9.778;2022-09-09T13:10:29;20.70;99.90
19552;DHT22;9921;47.186;9.778;2022-09-09T13:12:59;20.40;99.90
19552;DHT22;9921;47.186;9.778;2022-09-09T13:15:28;20.20;99.90
19552;DHT22;9921;47.186;9.778;2022-09-09T13:17:57;20.30;99.90
19552;DHT22;9921;47.186;9.778;2022-09-09T13:20:26;20.10;99.90
19552;DHT22;9921;47.186;9.778;2022-09-09T13:22:55;20.40;99.90
19552;DHT22;9921;47.186;9.778;2022-09-09T13:25:25;20.40;99.90
19552;DHT22;9921;47.186;9.778;2022-09-09T13:27:56;20.50;99.90
19552;DHT22;9921;47.186;9.778;2022-09-09T13:30:26;21.30;99.90
19552;DHT22;9921;47.186;9.778;2022-09-09T13:33:18;22.20;99.90
19552;DHT22;9921;47.186;9.778;2022-09-09T13:35:48;23.00;99.90
19552;DHT22;9921;47.186;9.778;2022-09-09T13:38:16;23.30;99.90
19552;DHT22;9921;47.186;9.778;2022-09-09T13:40:52;23.40;99.90
19552;DHT22;9921;47.186;9.778;2022-09-09T13:43:22;23.30;99.90
19552;DHT22;9921;47.186;9.778;2022-09-09T13:45:55;23.20;99.90
19552;DHT22;9921;47.186;9.778;2022-09-09T13:48:24;23.10;99.90
19552;DHT22;9921;47.186;9.778;2022-09-09T13:50:56;22.80;99.90
19552;DHT22;9921;47.186;9.778;2022-09-09T13:53:23;22.70;99.90
19552;DHT22;9921;47.186;9.778;2022-09-09T13:55:50;22.50;99.90
19552;DHT22;9921;47.186;9.778;2022-09-09T13:58:18;22.40;99.90
19552;DHT22;9921;47.186;9.778;2022-09-09T14:00:45;22.40;99.90
19552;DHT22;9921;47.186;9.778;2022-09-09T14:03:14;22.30;99.90
19552;DHT22;9921;47.186;9.778;2022-09-09T14:05:40;22.50;99.90
19552;DHT22;9921;47.186;9.778;2022-09-09T14:08:12;22.90;99.90
19552;DHT22;9921;47.186;9.778;2022-09-09T14:10:41;23.40;99.90
19552;DHT22;9921;47.186;9.778;2022-09-09T14:13:08;23.50;99.90
19552;DHT22;9921;47.186;9.778;2022-09-09T14:15:35;23.40;99.90
19552;DHT22;9921;47.186;9.778;2022-09-09T14:18:01;23.60;99.90
19552;DHT22;9921;47.186;9.778;2022-09-09T14:20:30;23.90;99.90
19552;DHT22;9921;47.186;9.778;2022-09-09T14:22:57;24.10;99.90
19552;DHT22;9921;47.186;9.778;2022-09-09T14:25:24;24.40;99.90
19552;DHT22;9921;47.186;9.778;2022-09-09T14:27:51;24.60;99.90
19552;DHT22;9921;47.186;9.778;2022-09-09T14:30:18;24.90;99.90
19552;DHT22;9921;47.186;9.778;2022-09-09T14:32:44;25.00;99.90
19552;DHT22;9921;47.186;9.778;2022-09-09T14:35:12;25.00;99.90
19552;DHT22;9921;47.186;9.778;2022-09-09T14:37:40;24.70;99.90
19552;DHT22;9921;47.186;9.778;2022-09-09T14:40:08;24.30;99.90
19552;DHT22;9921;47.186;9.778;2022-09-09T14:42:34;24.00;99.90
19552;DHT22;9921;47.186;9.778;2022-09-09T14:45:01;23.80;99.90
19552;DHT22;9921;47.186;9.778;2022-09-09T14:47:28;23.60;99.90
19552;DHT22;9921;47.186;9.778;2022-09-09T14:49:55;23.60;99.90
19552;DHT22;9921;47.186;9.778;2022-09-09T14:52:22;23.50;99.90
19552;DHT22;9921;47.186;9.778;2022-09-09T14:54:50;23.50;99.90
19552;DHT22;9921;47.186;9.778;2022-09-09T14:57:17;23.40;99.90
19552;DHT22;9921;47.186;9.778;2022-09-09T14:59:45;23.20;99.90
19552;DHT22;9921;47.186;9.778;2022-09-09T15:02:11;23.00;99.90
19552;DHT22;9921;47.186;9.778;2022-09-09T15:04:39;22.90;99.90
19552;DHT22;9921;47.186;9.778;2022-09-09T15:07:06;22.70;99.90
19552;DHT22;9921;47.186;9.778;2022-09-09T15:09:33;22.60;99.90
19552;DHT22;9921;47.186;9.778;2022-09-09T15:12:01;22.70;99.90
19552;DHT22;9921;47.186;9.778;2022-09-09T15:14:28;22.60;99.90
19552;DHT22;9921;47.186;9.778;2022-09-09T15:16:56;22.50;99.90
19552;DHT22;9921;47.186;9.778;2022-09-09T15:19:23;22.40;99.90
19552;DHT22;9921;47.186;9.778;2022-09-09T15:21:49;22.30;99.90
19552;DHT22;9921;47.186;9.778;2022-09-09T15:24:17;22.30;99.90
19552;DHT22;9921;47.186;9.778;2022-09-09T15:26:43;22.20;99.90
19552;DHT22;9921;47.186;9.778;2022-09-09T15:29:12;22.10;99.90
19552;DHT22;9921;47.186;9.778;2022-09-09T15:31:39;21.90;99.90
19552;DHT22;9921;47.186;9.778;2022-09-09T15:34:07;22.00;99.90
19552;DHT22;9921;47.186;9.778;2022-09-09T15:36:35;22.00;99.90
19552;DHT22;9921;47.186;9.778;2022-09-09T15:39:04;22.00;99.90
19552;DHT22;9921;47.186;9.778;2022-09-09T15:41:31;21.90;99.90
19552;DHT22;9921;47.186;9.778;2022-09-09T15:43:59;21.90;99.90
19552;DHT22;9921;47.186;9.778;2022-09-09T15:46:30;21.90;99.90
19552;DHT22;9921;47.186;9.778;2022-09-09T15:48:58;21.80;99.90
19552;DHT22;9921;47.186;9.778;2022-09-09T15:51:29;21.70;99.90
19552;DHT22;9921;47.186;9.778;2022-09-09T15:53:57;21.60;99.90
19552;DHT22;9921;47.186;9.778;2022-09-09T15:56:24;21.50;99.90
19552;DHT22;9921;47.186;9.778;2022-09-09T15:58:52;21.50;99.90
19552;DHT22;9921;47.186;9.778;2022-09-09T16:01:19;21.50;99.90
19552;DHT22;9921;47.186;9.778;2022-09-09T16:03:48;21.50;99.90
19552;DHT22;9921;47.186;9.778;2022-09-09T16:06:16;21.50;99.90
19552;DHT22;9921;47.186;9.778;2022-09-09T16:08:45;21.50;99.90
19552;DHT22;9921;47.186;9.778;2022-09-09T16:11:14;21.40;99.90
19552;DHT22;9921;47.186;9.778;2022-09-09T16:13:42;21.40;99.90